sensor_id;sensor_type;location;lat;lon;timestamp;pressure;altitude;pressure_sealevel;temperature;humidity
29909;BME280;36247;51.952;6.146;2024-01-07T00:01:49;101650.13;;;1.82;100.00
29909;BME280;36247;51.952;6.146;2024-01-07T00:04:16;101647.06;;;1.89;100.00
29909;BME280;36247;51.952;6.146;2024-01-07T00:06:42;101653.22;;;1.90;100.00
29909;BME280;36247;51.952;6.146;2024-01-07T00:09:07;101648.69;;;1.87;100.00
29909;BME280;36247;51.952;6.146;2024-01-07T00:11:33;101648.69;;;1.87;100.00
29909;BME280;36247;51.952;6.146;2024-01-07T00:13:58;101656.56;;;1.74;100.00
29909;BME280;36247;51.952;6.146;2024-01-07T00:16:24;101660.56;;;1.82;100.00
29909;BME280;36247;51.952;6.146;2024-01-07T00:18:49;101661.31;;;1.94;100.00
29909;BME280;36247;51.952;6.146;2024-01-07T00:21:15;101664.88;;;1.82;100.00
29909;BME280;36247;51.952;6.146;2024-01-07T00:23:40;101672.00;;;1.84;100.00
29909;BME280;36247;51.952;6.146;2024-01-07T00:26:07;101664.59;;;1.77;100.00
29909;BME280;36247;51.952;6.146;2024-01-07T00:28:33;101665.16;;;1.86;100.00
29909;BME280;36247;51.952;6.146;2024-01-07T00:30:58;101672.38;;;1.90;100.00
29909;BME280;36247;51.952;6.146;2024-01-07T00:33:25;101676.50;;;2.00;100.00
29909;BME280;36247;51.952;6.146;2024-01-07T00:35:51;101668.41;;;1.82;100.00
29909;BME280;36247;51.952;6.146;2024-01-07T00:38:16;101677.25;;;1.84;100.00
29909;BME280;36247;51.952;6.146;2024-01-07T00:40:42;101679.00;;;1.99;100.00
29909;BME280;36247;51.952;6.146;2024-01-07T00:43:08;101683.59;;;1.74;100.00
29909;BME280;36247;51.952;6.146;2024-01-07T00:45:34;101682.50;;;1.71;100.00
29909;BME280;36247;51.952;6.146;2024-01-07T00:48:00;101690.63;;;1.75;100.00
29909;BME280;36247;51.952;6.146;2024-01-07T00:50:25;101692.50;;;1.91;100.00
29909;BME280;36247;51.952;6.146;2024-01-07T00:52:51;101694.81;;;1.87;100.00
29909;BME280;36247;51.952;6.146;2024-01-07T00:55:16;101696.84;;;1.77;100.00
29909;BME280;36247;51.952;6.146;2024-01-07T00:57:42;101702.53;;;1.99;100.00
29909;BME280;36247;51.952;6.146;2024-01-07T01:00:08;101708.41;;;1.81;100.00
29909;BME280;36247;51.952;6.146;2024-01-07T01:02:34;101702.16;;;1.79;100.00
29909;BME280;36247;51.952;6.146;2024-01-07T01:05:04;101702.88;;;1.76;100.00
29909;BME280;36247;51.952;6.146;2024-01-07T01:07:31;101701.13;;;1.90;100.00
29909;BME280;36247;51.952;6.146;2024-01-07T01:09:59;101705.47;;;1.90;100.00
29909;BME280;36247;51.952;6.146;2024-01-07T01:12:25;101713.22;;;1.88;100.00
29909;BME280;36247;51.952;6.146;2024-01-07T01:14:50;101715.03;;;1.76;100.00
29909;BME280;36247;51.952;6.146;2024-01-07T01:17:15;101712.81;;;1.82;100.00
29909;BME280;36247;51.952;6.146;2024-01-07T01:19:41;101713.84;;;1.71;100.00
29909;BME280;36247;51.952;6.146;2024-01-07T01:22:07;101721.47;;;1.81;100.00
29909;BME280;36247;51.952;6.146;2024-01-07T01:24:35;101727.91;;;1.73;100.00
29909;BME280;36247;51.952;6.146;2024-01-07T01:27:02;101725.91;;;1.82;100.00
29909;BME280;36247;51.952;6.146;2024-01-07T01:29:31;101727.38;;;1.79;100.00
29909;BME280;36247;51.952;6.146;2024-01-07T01:31:58;101727.28;;;1.77;100.00
29909;BME280;36247;51.952;6.146;2024-01-07T01:34:25;101729.50;;;1.84;100.00
29909;BME280;36247;51.952;6.146;2024-01-07T01:36:50;101736.44;;;1.84;100.00
29909;BME280;36247;51.952;6.146;2024-01-07T01:39:16;101745.78;;;1.80;100.00
29909;BME280;36247;51.952;6.146;2024-01-07T01:41:41;101747.59;;;1.68;100.00
29909;BME280;36247;51.952;6.146;2024-01-07T01:44:07;101747.31;;;1.63;100.00
29909;BME280;36247;51.952;6.146;2024-01-07T01:46:33;101751.41;;;1.73;100.00
29909;BME280;36247;51.952;6.146;2024-01-07T01:48:59;101753.63;;;1.67;100.00
29909;BME280;36247;51.952;6.146;2024-01-07T01:51:31;101757.97;;;1.66;100.00
29909;BME280;36247;51.952;6.146;2024-01-07T01:53:59;101753.72;;;1.68;100.00
29909;BME280;36247;51.952;6.146;2024-01-07T01:56:27;101767.28;;;1.63;100.00
29909;BME280;36247;51.952;6.146;2024-01-07T01:58:53;101757.38;;;1.70;100.00
29909;BME280;36247;51.952;6.146;2024-01-07T02:01:18;101760.19;;;1.60;100.00
29909;BME280;36247;51.952;6.146;2024-01-07T02:03:44;101769.81;;;1.61;100.00
29909;BME280;36247;51.952;6.146;2024-01-07T02:06:10;101769.00;;;1.75;100.00
29909;BME280;36247;51.952;6.146;2024-01-07T02:08:38;101770.72;;;1.62;100.00
29909;BME280;36247;51.952;6.146;2024-01-07T02:11:21;101771.50;;;1.74;100.00
29909;BME280;36247;51.952;6.146;2024-01-07T02:13:48;101774.91;;;1.73;100.00
29909;BME280;36247;51.952;6.146;2024-01-07T02:16:14;101775.22;;;1.77;100.00
29909;BME280;36247;51.952;6.146;2024-01-07T02:18:41;101774.81;;;1.71;100.00
29909;BME280;36247;51.952;6.146;2024-01-07T02:21:08;101781.16;;;1.75;100.00
29909;BME280;36247;51.952;6.146;2024-01-07T02:23:34;101779.34;;;1.74;100.00
29909;BME280;36247;51.952;6.146;2024-01-07T02:26:00;101789.78;;;1.87;100.00
29909;BME280;36247;51.952;6.146;2024-01-07T02:28:26;101789.00;;;1.62;100.00
29909;BME280;36247;51.952;6.146;2024-01-07T02:30:51;101789.59;;;1.71;100.00
29909;BME280;36247;51.952;6.146;2024-01-07T02:33:17;101795.81;;;1.73;100.00
29909;BME280;36247;51.952;6.146;2024-01-07T02:35:42;101790.09;;;1.65;100.00
29909;BME280;36247;51.952;6.146;2024-01-07T02:38:08;101796.94;;;1.50;100.00
29909;BME280;36247;51.952;6.146;2024-01-07T02:40:33;101799.47;;;1.62;100.00
29909;BME280;36247;51.952;6.146;2024-01-07T02:42:59;101801.47;;;1.66;100.00
29909;BME280;36247;51.952;6.146;2024-01-07T02:45:24;101804.88;;;1.51;100.00
29909;BME280;36247;51.952;6.146;2024-01-07T02:47:50;101802.97;;;1.49;100.00
29909;BME280;36247;51.952;6.146;2024-01-07T02:50:16;101813.00;;;1.56;100.00
29909;BME280;36247;51.952;6.146;2024-01-07T02:52:42;101806.91;;;1.55;100.00
29909;BME280;36247;51.952;6.146;2024-01-07T02:55:08;101813.72;;;1.53;100.00
29909;BME280;36247;51.952;6.146;2024-01-07T02:57:33;101812.41;;;1.60;100.00
29909;BME280;36247;51.952;6.146;2024-01-07T02:59:59;101807.88;;;1.44;100.00
29909;BME280;36247;51.952;6.146;2024-01-07T03:02:24;101814.72;;;1.42;100.00
29909;BME280;36247;51.952;6.146;2024-01-07T03:04:50;101819.94;;;1.42;100.00
29909;BME280;36247;51.952;6.146;2024-01-07T03:07:16;101818.13;;;1.41;100.00
29909;BME280;36247;51.952;6.146;2024-01-07T03:09:41;101824.31;;;1.30;100.00
29909;BME280;36247;51.952;6.146;2024-01-07T03:12:06;101821.72;;;1.43;100.00
29909;BME280;36247;51.952;6.146;2024-01-07T03:14:33;101822.75;;;1.32;100.00
29909;BME280;36247;51.952;6.146;2024-01-07T03:16:59;101830.56;;;1.32;100.00
29909;BME280;36247;51.952;6.146;2024-01-07T03:19:24;101831.38;;;1.31;100.00
29909;BME280;36247;51.952;6.146;2024-01-07T03:21:50;101843.44;;;1.42;100.00
29909;BME280;36247;51.952;6.146;2024-01-07T03:24:15;101845.72;;;1.24;100.00
29909;BME280;36247;51.952;6.146;2024-01-07T03:26:41;101844.22;;;1.28;100.00
29909;BME280;36247;51.952;6.146;2024-01-07T03:29:06;101844.53;;;1.32;100.00
29909;BME280;36247;51.952;6.146;2024-01-07T03:31:34;101845.66;;;1.36;100.00
29909;BME280;36247;51.952;6.146;2024-01-07T03:34:00;101845.63;;;1.22;100.00
29909;BME280;36247;51.952;6.146;2024-01-07T03:36:26;101845.28;;;1.18;100.00
29909;BME280;36247;51.952;6.146;2024-01-07T03:38:51;101847.00;;;1.17;100.00
29909;BME280;36247;51.952;6.146;2024-01-07T03:41:19;101851.63;;;1.21;100.00
29909;BME280;36247;51.952;6.146;2024-01-07T03:43:49;101848.59;;;1.15;100.00
29909;BME280;36247;51.952;6.146;2024-01-07T03:46:16;101858.22;;;1.16;100.00
29909;BME280;36247;51.952;6.146;2024-01-07T03:48:43;101854.44;;;1.25;100.00
29909;BME280;36247;51.952;6.146;2024-01-07T03:51:09;101852.44;;;1.20;100.00
29909;BME280;36247;51.952;6.146;2024-01-07T03:53:35;101855.44;;;1.27;100.00
29909;BME280;36247;51.952;6.146;2024-01-07T03:56:01;101856.44;;;1.15;100.00
29909;BME280;36247;51.952;6.146;2024-01-07T03:58:34;101851.06;;;1.00;100.00
29909;BME280;36247;51.952;6.146;2024-01-07T04:01:00;101859.00;;;1.02;100.00
29909;BME280;36247;51.952;6.146;2024-01-07T04:03:30;101857.53;;;1.19;100.00
29909;BME280;36247;51.952;6.146;2024-01-07T04:05:58;101858.53;;;1.08;100.00
29909;BME280;36247;51.952;6.146;2024-01-07T04:08:23;101858.78;;;0.99;100.00
29909;BME280;36247;51.952;6.146;2024-01-07T04:10:49;101864.16;;;1.14;100.00
29909;BME280;36247;51.952;6.146;2024-01-07T04:13:14;101868.09;;;0.95;100.00
29909;BME280;36247;51.952;6.146;2024-01-07T04:15:40;101874.03;;;0.93;100.00
29909;BME280;36247;51.952;6.146;2024-01-07T04:18:05;101874.97;;;1.07;100.00
29909;BME280;36247;51.952;6.146;2024-01-07T04:20:33;101877.84;;;0.98;100.00
29909;BME280;36247;51.952;6.146;2024-01-07T04:22:58;101887.91;;;0.80;100.00
29909;BME280;36247;51.952;6.146;2024-01-07T04:25:24;101887.34;;;0.84;100.00
29909;BME280;36247;51.952;6.146;2024-01-07T04:27:50;101887.75;;;0.90;100.00
29909;BME280;36247;51.952;6.146;2024-01-07T04:30:15;101896.63;;;0.80;100.00
29909;BME280;36247;51.952;6.146;2024-01-07T04:32:41;101893.56;;;0.86;100.00
29909;BME280;36247;51.952;6.146;2024-01-07T04:35:07;101900.03;;;0.91;100.00
29909;BME280;36247;51.952;6.146;2024-01-07T04:37:35;101899.03;;;1.02;100.00
29909;BME280;36247;51.952;6.146;2024-01-07T04:40:01;101903.06;;;0.97;100.00
29909;BME280;36247;51.952;6.146;2024-01-07T04:42:29;101898.00;;;0.87;100.00
29909;BME280;36247;51.952;6.146;2024-01-07T04:44:56;101905.78;;;0.99;100.00
29909;BME280;36247;51.952;6.146;2024-01-07T04:47:27;101908.16;;;0.96;100.00
29909;BME280;36247;51.952;6.146;2024-01-07T04:49:53;101905.25;;;1.04;100.00
29909;BME280;36247;51.952;6.146;2024-01-07T04:52:18;101914.91;;;1.05;100.00
29909;BME280;36247;51.952;6.146;2024-01-07T04:54:44;101910.88;;;0.97;100.00
29909;BME280;36247;51.952;6.146;2024-01-07T04:57:11;101916.25;;;1.12;100.00
29909;BME280;36247;51.952;6.146;2024-01-07T04:59:36;101915.59;;;1.03;100.00
29909;BME280;36247;51.952;6.146;2024-01-07T05:02:06;101916.06;;;1.09;100.00
29909;BME280;36247;51.952;6.146;2024-01-07T05:04:34;101920.34;;;1.09;100.00
29909;BME280;36247;51.952;6.146;2024-01-07T05:07:00;101924.34;;;1.03;100.00
29909;BME280;36247;51.952;6.146;2024-01-07T05:09:25;101926.13;;;1.04;100.00
29909;BME280;36247;51.952;6.146;2024-01-07T05:11:51;101930.09;;;1.11;100.00
29909;BME280;36247;51.952;6.146;2024-01-07T05:14:16;101934.38;;;0.97;100.00
29909;BME280;36247;51.952;6.146;2024-01-07T05:16:42;101937.66;;;0.95;100.00
29909;BME280;36247;51.952;6.146;2024-01-07T05:19:08;101938.28;;;1.04;100.00
29909;BME280;36247;51.952;6.146;2024-01-07T05:21:34;101942.72;;;1.05;100.00
29909;BME280;36247;51.952;6.146;2024-01-07T05:23:59;101958.09;;;0.88;100.00
29909;BME280;36247;51.952;6.146;2024-01-07T05:26:25;101956.56;;;1.04;100.00
29909;BME280;36247;51.952;6.146;2024-01-07T05:28:50;101959.22;;;0.92;100.00
29909;BME280;36247;51.952;6.146;2024-01-07T05:31:19;101961.34;;;0.98;100.00
29909;BME280;36247;51.952;6.146;2024-01-07T05:33:45;101963.19;;;0.99;100.00
29909;BME280;36247;51.952;6.146;2024-01-07T05:36:14;101974.19;;;0.95;100.00
29909;BME280;36247;51.952;6.146;2024-01-07T05:38:43;101968.81;;;1.05;100.00
29909;BME280;36247;51.952;6.146;2024-01-07T05:41:08;101971.44;;;1.05;100.00
29909;BME280;36247;51.952;6.146;2024-01-07T05:43:36;101974.97;;;0.94;100.00
29909;BME280;36247;51.952;6.146;2024-01-07T05:46:01;101985.19;;;0.91;100.00
29909;BME280;36247;51.952;6.146;2024-01-07T05:48:26;101983.03;;;0.85;100.00
29909;BME280;36247;51.952;6.146;2024-01-07T05:50:52;101991.66;;;0.96;100.00
29909;BME280;36247;51.952;6.146;2024-01-07T05:53:17;101989.75;;;0.81;100.00
29909;BME280;36247;51.952;6.146;2024-01-07T05:55:43;101987.81;;;0.91;100.00
29909;BME280;36247;51.952;6.146;2024-01-07T05:58:09;101993.25;;;0.94;100.00
29909;BME280;36247;51.952;6.146;2024-01-07T06:00:35;101992.19;;;1.03;100.00
29909;BME280;36247;51.952;6.146;2024-01-07T06:03:01;101999.59;;;0.97;100.00
29909;BME280;36247;51.952;6.146;2024-01-07T06:05:31;102003.25;;;0.87;100.00
29909;BME280;36247;51.952;6.146;2024-01-07T06:07:58;102013.69;;;0.87;100.00
29909;BME280;36247;51.952;6.146;2024-01-07T06:10:24;102016.75;;;0.82;100.00
29909;BME280;36247;51.952;6.146;2024-01-07T06:12:49;102017.09;;;0.75;100.00
29909;BME280;36247;51.952;6.146;2024-01-07T06:15:15;102024.00;;;0.86;100.00
29909;BME280;36247;51.952;6.146;2024-01-07T06:17:40;102033.22;;;0.81;100.00
29909;BME280;36247;51.952;6.146;2024-01-07T06:20:06;102030.19;;;0.63;100.00
29909;BME280;36247;51.952;6.146;2024-01-07T06:22:33;102042.84;;;0.70;100.00
29909;BME280;36247;51.952;6.146;2024-01-07T06:24:59;102041.72;;;0.66;100.00
29909;BME280;36247;51.952;6.146;2024-01-07T06:27:25;102043.31;;;0.64;100.00
29909;BME280;36247;51.952;6.146;2024-01-07T06:29:50;102042.84;;;0.70;100.00
29909;BME280;36247;51.952;6.146;2024-01-07T06:32:16;102052.94;;;0.65;100.00
29909;BME280;36247;51.952;6.146;2024-01-07T06:34:41;102058.97;;;0.76;100.00
29909;BME280;36247;51.952;6.146;2024-01-07T06:37:08;102064.31;;;0.78;100.00
29909;BME280;36247;51.952;6.146;2024-01-07T06:39:35;102064.09;;;0.63;100.00
29909;BME280;36247;51.952;6.146;2024-01-07T06:42:10;102071.41;;;0.80;100.00
29909;BME280;36247;51.952;6.146;2024-01-07T06:44:35;102075.28;;;0.74;100.00
29909;BME280;36247;51.952;6.146;2024-01-07T06:47:01;102068.47;;;0.64;100.00
29909;BME280;36247;51.952;6.146;2024-01-07T06:49:33;102077.56;;;0.69;100.00
29909;BME280;36247;51.952;6.146;2024-01-07T06:51:59;102082.06;;;0.83;100.00
29909;BME280;36247;51.952;6.146;2024-01-07T06:54:26;102075.53;;;0.65;100.00
29909;BME280;36247;51.952;6.146;2024-01-07T06:56:51;102077.34;;;0.66;100.00
29909;BME280;36247;51.952;6.146;2024-01-07T06:59:16;102081.84;;;0.57;100.00
29909;BME280;36247;51.952;6.146;2024-01-07T07:01:42;102085.28;;;0.67;100.00
29909;BME280;36247;51.952;6.146;2024-01-07T07:04:07;102089.00;;;0.71;100.00
29909;BME280;36247;51.952;6.146;2024-01-07T07:06:33;102091.50;;;0.58;100.00
29909;BME280;36247;51.952;6.146;2024-01-07T07:09:00;102100.72;;;0.64;100.00
29909;BME280;36247;51.952;6.146;2024-01-07T07:11:26;102102.28;;;0.62;100.00
29909;BME280;36247;51.952;6.146;2024-01-07T07:13:51;102107.72;;;0.53;100.00
29909;BME280;36247;51.952;6.146;2024-01-07T07:16:17;102112.91;;;0.53;100.00
29909;BME280;36247;51.952;6.146;2024-01-07T07:18:42;102118.34;;;0.57;100.00
29909;BME280;36247;51.952;6.146;2024-01-07T07:21:08;102121.91;;;0.69;100.00
29909;BME280;36247;51.952;6.146;2024-01-07T07:23:33;102120.75;;;0.53;100.00
29909;BME280;36247;51.952;6.146;2024-01-07T07:25:59;102128.34;;;0.50;100.00
29909;BME280;36247;51.952;6.146;2024-01-07T07:28:24;102135.94;;;0.47;100.00
29909;BME280;36247;51.952;6.146;2024-01-07T07:30:50;102143.00;;;0.72;100.00
29909;BME280;36247;51.952;6.146;2024-01-07T07:33:15;102151.72;;;0.61;100.00
29909;BME280;36247;51.952;6.146;2024-01-07T07:35:40;102154.22;;;0.59;100.00
29909;BME280;36247;51.952;6.146;2024-01-07T07:38:07;102159.31;;;0.58;100.00
29909;BME280;36247;51.952;6.146;2024-01-07T07:40:33;102166.69;;;0.63;100.00
29909;BME280;36247;51.952;6.146;2024-01-07T07:42:59;102164.75;;;0.61;100.00
29909;BME280;36247;51.952;6.146;2024-01-07T07:45:24;102171.09;;;0.52;100.00
29909;BME280;36247;51.952;6.146;2024-01-07T07:47:50;102166.91;;;0.55;100.00
29909;BME280;36247;51.952;6.146;2024-01-07T07:50:15;102176.41;;;0.42;100.00
29909;BME280;36247;51.952;6.146;2024-01-07T07:52:42;102180.03;;;0.44;100.00
29909;BME280;36247;51.952;6.146;2024-01-07T07:55:09;102178.19;;;0.31;100.00
29909;BME280;36247;51.952;6.146;2024-01-07T07:57:36;102182.28;;;0.40;100.00
29909;BME280;36247;51.952;6.146;2024-01-07T08:00:06;102186.75;;;0.52;100.00
29909;BME280;36247;51.952;6.146;2024-01-07T08:02:33;102192.47;;;0.37;100.00
29909;BME280;36247;51.952;6.146;2024-01-07T08:04:59;102191.81;;;0.39;100.00
29909;BME280;36247;51.952;6.146;2024-01-07T08:07:24;102194.50;;;0.29;100.00
29909;BME280;36247;51.952;6.146;2024-01-07T08:09:51;102195.75;;;0.34;100.00
29909;BME280;36247;51.952;6.146;2024-01-07T08:12:16;102205.00;;;0.19;100.00
29909;BME280;36247;51.952;6.146;2024-01-07T08:14:42;102205.06;;;0.30;100.00
29909;BME280;36247;51.952;6.146;2024-01-07T08:17:08;102211.31;;;0.44;100.00
29909;BME280;36247;51.952;6.146;2024-01-07T08:19:35;102209.38;;;0.42;100.00
29909;BME280;36247;51.952;6.146;2024-01-07T08:22:05;102219.34;;;0.35;100.00
29909;BME280;36247;51.952;6.146;2024-01-07T08:24:35;102224.63;;;0.25;100.00
29909;BME280;36247;51.952;6.146;2024-01-07T08:27:06;102232.78;;;0.18;100.00
29909;BME280;36247;51.952;6.146;2024-01-07T08:29:34;102232.31;;;0.24;100.00
29909;BME280;36247;51.952;6.146;2024-01-07T08:32:01;102238.94;;;0.30;100.00
29909;BME280;36247;51.952;6.146;2024-01-07T08:34:35;102239.72;;;0.29;100.00
29909;BME280;36247;51.952;6.146;2024-01-07T08:37:09;102246.63;;;0.29;100.00
29909;BME280;36247;51.952;6.146;2024-01-07T08:39:36;102244.38;;;0.33;100.00
29909;BME280;36247;51.952;6.146;2024-01-07T08:42:06;102253.66;;;0.30;100.00
29909;BME280;36247;51.952;6.146;2024-01-07T08:44:34;102249.25;;;0.29;100.00
29909;BME280;36247;51.952;6.146;2024-01-07T08:47:01;102252.56;;;0.38;100.00
29909;BME280;36247;51.952;6.146;2024-01-07T08:49:34;102248.47;;;0.42;100.00
29909;BME280;36247;51.952;6.146;2024-01-07T08:52:03;102273.66;;;0.41;100.00
29909;BME280;36247;51.952;6.146;2024-01-07T08:54:34;102267.78;;;0.44;100.00
29909;BME280;36247;51.952;6.146;2024-01-07T08:57:01;102273.66;;;0.41;100.00
29909;BME280;36247;51.952;6.146;2024-01-07T08:59:26;102269.78;;;0.36;100.00
29909;BME280;36247;51.952;6.146;2024-01-07T09:01:52;102274.94;;;0.46;100.00
29909;BME280;36247;51.952;6.146;2024-01-07T09:04:17;102284.78;;;0.50;100.00
29909;BME280;36247;51.952;6.146;2024-01-07T09:06:48;102284.00;;;0.51;100.00
29909;BME280;36247;51.952;6.146;2024-01-07T09:09:14;102287.53;;;0.52;100.00
29909;BME280;36247;51.952;6.146;2024-01-07T09:11:40;102287.09;;;0.58;100.00
29909;BME280;36247;51.952;6.146;2024-01-07T09:14:06;102291.59;;;0.48;100.00
29909;BME280;36247;51.952;6.146;2024-01-07T09:16:53;102294.16;;;0.37;100.00
29909;BME280;36247;51.952;6.146;2024-01-07T09:19:19;102292.44;;;0.37;100.00
29909;BME280;36247;51.952;6.146;2024-01-07T09:21:44;102296.66;;;0.35;100.00
29909;BME280;36247;51.952;6.146;2024-01-07T09:24:10;102302.84;;;0.59;100.00
29909;BME280;36247;51.952;6.146;2024-01-07T09:26:36;102301.03;;;0.58;100.00
29909;BME280;36247;51.952;6.146;2024-01-07T09:29:06;102304.69;;;0.60;100.00
29909;BME280;36247;51.952;6.146;2024-01-07T09:31:34;102309.06;;;0.49;100.00
29909;BME280;36247;51.952;6.146;2024-01-07T09:34:06;102321.53;;;0.53;100.00
29909;BME280;36247;51.952;6.146;2024-01-07T09:36:34;102322.91;;;0.48;100.00
29909;BME280;36247;51.952;6.146;2024-01-07T09:39:08;102322.41;;;0.64;100.00
29909;BME280;36247;51.952;6.146;2024-01-07T09:41:36;102322.41;;;0.64;100.00
29909;BME280;36247;51.952;6.146;2024-01-07T09:44:07;102336.69;;;0.69;100.00
29909;BME280;36247;51.952;6.146;2024-01-07T09:46:37;102332.63;;;0.73;100.00
29909;BME280;36247;51.952;6.146;2024-01-07T09:49:07;102333.94;;;0.90;100.00
29909;BME280;36247;51.952;6.146;2024-01-07T09:51:36;102342.16;;;0.73;100.00
29909;BME280;36247;51.952;6.146;2024-01-07T09:54:08;102353.59;;;0.75;100.00
29909;BME280;36247;51.952;6.146;2024-01-07T09:56:39;102358.75;;;0.85;100.00
29909;BME280;36247;51.952;6.146;2024-01-07T09:59:08;102355.66;;;0.79;100.00
29909;BME280;36247;51.952;6.146;2024-01-07T10:01:34;102348.03;;;0.70;100.00
29909;BME280;36247;51.952;6.146;2024-01-07T10:04:05;102367.50;;;0.85;100.00
29909;BME280;36247;51.952;6.146;2024-01-07T10:06:36;102368.44;;;0.98;100.00
29909;BME280;36247;51.952;6.146;2024-01-07T10:09:08;102362.78;;;1.03;100.00
29909;BME280;36247;51.952;6.146;2024-01-07T10:11:36;102375.97;;;1.05;100.00
29909;BME280;36247;51.952;6.146;2024-01-07T10:14:07;102358.03;;;1.10;100.00
29909;BME280;36247;51.952;6.146;2024-01-07T10:16:36;102357.03;;;1.19;100.00
29909;BME280;36247;51.952;6.146;2024-01-07T10:19:06;102357.41;;;1.24;100.00
29909;BME280;36247;51.952;6.146;2024-01-07T10:21:35;102365.91;;;1.21;100.00
29909;BME280;36247;51.952;6.146;2024-01-07T10:24:11;102369.91;;;1.40;100.00
29909;BME280;36247;51.952;6.146;2024-01-07T10:26:38;102356.75;;;1.74;100.00
29909;BME280;36247;51.952;6.146;2024-01-07T10:29:07;102366.53;;;1.53;100.00
29909;BME280;36247;51.952;6.146;2024-01-07T10:31:37;102365.16;;;1.58;100.00
29909;BME280;36247;51.952;6.146;2024-01-07T10:34:14;102359.38;;;1.62;100.00
29909;BME280;36247;51.952;6.146;2024-01-07T10:36:41;102369.25;;;1.78;100.00
29909;BME280;36247;51.952;6.146;2024-01-07T10:39:07;102374.38;;;1.65;100.00
29909;BME280;36247;51.952;6.146;2024-01-07T10:41:37;102377.63;;;1.50;100.00
29909;BME280;36247;51.952;6.146;2024-01-07T10:44:10;102375.16;;;1.99;100.00
29909;BME280;36247;51.952;6.146;2024-01-07T10:46:35;102377.31;;;1.57;100.00
29909;BME280;36247;51.952;6.146;2024-01-07T10:49:19;102385.69;;;1.41;100.00
29909;BME280;36247;51.952;6.146;2024-01-07T10:52:09;102389.22;;;1.77;100.00
29909;BME280;36247;51.952;6.146;2024-01-07T10:54:36;102384.13;;;1.44;100.00
29909;BME280;36247;51.952;6.146;2024-01-07T10:59:50;102392.16;;;1.35;100.00
29909;BME280;36247;51.952;6.146;2024-01-07T11:02:16;102388.75;;;1.36;100.00
29909;BME280;36247;51.952;6.146;2024-01-07T11:04:47;102390.56;;;1.03;100.00
29909;BME280;36247;51.952;6.146;2024-01-07T11:07:35;102385.69;;;1.53;100.00
29909;BME280;36247;51.952;6.146;2024-01-07T11:10:13;102395.41;;;2.02;100.00
29909;BME280;36247;51.952;6.146;2024-01-07T11:12:40;102400.25;;;2.70;100.00
29909;BME280;36247;51.952;6.146;2024-01-07T11:15:07;102399.75;;;2.50;100.00
29909;BME280;36247;51.952;6.146;2024-01-07T11:20:07;102398.22;;;1.81;100.00
29909;BME280;36247;51.952;6.146;2024-01-07T11:22:37;102406.81;;;1.56;100.00
29909;BME280;36247;51.952;6.146;2024-01-07T11:25:29;102408.94;;;1.38;100.00
29909;BME280;36247;51.952;6.146;2024-01-07T11:28:04;102414.78;;;1.58;100.00
29909;BME280;36247;51.952;6.146;2024-01-07T11:30:38;102401.28;;;1.64;100.00
29909;BME280;36247;51.952;6.146;2024-01-07T11:33:06;102402.06;;;1.63;100.00
29909;BME280;36247;51.952;6.146;2024-01-07T11:36:04;102402.47;;;1.21;100.00
29909;BME280;36247;51.952;6.146;2024-01-07T11:38:36;102407.22;;;1.15;100.00
29909;BME280;36247;51.952;6.146;2024-01-07T11:41:07;102414.19;;;1.50;100.00
29909;BME280;36247;51.952;6.146;2024-01-07T11:43:34;102398.22;;;3.55;100.00
29909;BME280;36247;51.952;6.146;2024-01-07T11:46:01;102385.94;;;3.67;100.00
29909;BME280;36247;51.952;6.146;2024-01-07T11:48:31;102396.72;;;4.12;100.00
29909;BME280;36247;51.952;6.146;2024-01-07T11:50:56;102393.69;;;4.32;100.00
29909;BME280;36247;51.952;6.146;2024-01-07T11:53:22;102400.41;;;4.55;100.00
29909;BME280;36247;51.952;6.146;2024-01-07T11:55:48;102411.16;;;4.73;100.00
29909;BME280;36247;51.952;6.146;2024-01-07T11:58:13;102405.53;;;4.67;100.00
29909;BME280;36247;51.952;6.146;2024-01-07T12:00:39;102394.66;;;4.48;100.00
29909;BME280;36247;51.952;6.146;2024-01-07T12:03:05;102404.88;;;5.58;100.00
29909;BME280;36247;51.952;6.146;2024-01-07T12:05:31;102396.56;;;4.92;100.00
29909;BME280;36247;51.952;6.146;2024-01-07T12:08:00;102406.41;;;5.24;100.00
29909;BME280;36247;51.952;6.146;2024-01-07T12:10:26;102400.16;;;5.52;100.00
29909;BME280;36247;51.952;6.146;2024-01-07T12:12:52;102398.69;;;5.12;100.00
29909;BME280;36247;51.952;6.146;2024-01-07T12:15:17;102406.13;;;4.76;100.00
29909;BME280;36247;51.952;6.146;2024-01-07T12:17:55;102406.19;;;4.78;100.00
29909;BME280;36247;51.952;6.146;2024-01-07T12:20:21;102403.63;;;4.65;100.00
29909;BME280;36247;51.952;6.146;2024-01-07T12:22:46;102407.47;;;4.85;100.00
29909;BME280;36247;51.952;6.146;2024-01-07T12:25:13;102411.03;;;4.85;100.00
29909;BME280;36247;51.952;6.146;2024-01-07T12:27:41;102399.78;;;5.31;100.00
29909;BME280;36247;51.952;6.146;2024-01-07T12:30:06;102414.69;;;4.19;100.00
29909;BME280;36247;51.952;6.146;2024-01-07T12:32:35;102420.38;;;3.08;100.00
29909;BME280;36247;51.952;6.146;2024-01-07T12:35:01;102429.94;;;2.70;100.00
29909;BME280;36247;51.952;6.146;2024-01-07T12:37:34;102431.28;;;2.16;100.00
29909;BME280;36247;51.952;6.146;2024-01-07T12:40:01;102440.50;;;1.99;100.00
29909;BME280;36247;51.952;6.146;2024-01-07T12:42:34;102437.22;;;1.90;100.00
29909;BME280;36247;51.952;6.146;2024-01-07T12:44:59;102434.91;;;1.71;100.00
29909;BME280;36247;51.952;6.146;2024-01-07T12:47:25;102445.41;;;1.37;100.00
29909;BME280;36247;51.952;6.146;2024-01-07T12:49:53;102442.44;;;1.32;100.00
29909;BME280;36247;51.952;6.146;2024-01-07T12:52:19;102444.47;;;1.25;100.00
29909;BME280;36247;51.952;6.146;2024-01-07T12:54:45;102439.81;;;1.32;100.00
29909;BME280;36247;51.952;6.146;2024-01-07T12:57:13;102443.34;;;1.33;100.00